Nenana, AK

11:53 PM AKST on February 11, 2016 (GMT -0900)
Nenana Municipal | | Change Station
CLOSE
Current Station
Airport
Location: Nenana,
Elevation: 361 ft
Nearby Weather Stations

Elev 361 ft 64.55 °N, 149.07 °W | Updated 1 hour ago

Clear
Clear
-2 °F
Feels Like -2 °F
N
0
Wind Variable Wind from North

Today
High -- | Low -- °F
--% Chance of Precip.
Yesterday
High -- | Low -- °F
Precip. -- in
Pressure 29.60 in
Visibility 10.0 miles
Clouds Clear
Dew Point -7 °F
Humidity 79%
Rainfall 0.00 in
Snow Depth Not available.
9:07 AM 5:14 PM
Waxing Crescent, 18% visible
METAR PANN 120753Z AUTO 00000KT 10SM CLR M19/M22 A2956 RMK AO2 SLP023 T11891217 TSNO
Pressure 29.60 in
Visibility 10.0 miles
Clouds Clear
Dew Point -7 °F
Humidity 79%
Rainfall 0.00 in
Snow Depth Not available.
9:07 AM 5:14 PM
Waxing Crescent, 18% visible
METAR PANN 120753Z AUTO 00000KT 10SM CLR M19/M22 A2956 RMK AO2 SLP023 T11891217 TSNO

10-Day Weather Forecast

Almanac

Astronomy

Feb. 11, 2016 Rise Set
Actual Time
Civil Twilight
Nautical Twilight
Astronomical Twilight
Moon
Length of Visible Light
Length of Day
Tomorrow will be .
, % of the Moon is Illuminated

Today's Extremes

State Highs State Lows

Community

WunderPhotos

Upload Photos

1,892,284 photos uploaded!

WunderBlog® & News

Nearby

Air Quality

  Air Quality AQ Index Pollutant
Not available.

Snow Depth

Station Depth Elevation

Earthquake Activity

City Distance Mag. Time & Date
Minimum magnitude displayed is 2.5.

Coastal Water Temperatures

Place Temperature

Stations

Nearby Weather Stations

Station Location Temp. Windchill Dew Point Humidity Wind Precip. Elev Updated Type
                   

Watches & Warnings

There are currently no watches in effect.